sensor_id;sensor_type;location;lat;lon;timestamp;P1;durP1;ratioP1;P2;durP2;ratioP2
18217;SDS011;9234;49.344;11.120;2023-10-09T00:00:15;10.20;;;4.85;;
18217;SDS011;9234;49.344;11.120;2023-10-09T00:03:02;9.60;;;5.43;;
18217;SDS011;9234;49.344;11.120;2023-10-09T00:05:33;6.70;;;5.30;;
18217;SDS011;9234;49.344;11.120;2023-10-09T00:08:13;10.60;;;5.22;;
18217;SDS011;9234;49.344;11.120;2023-10-09T00:10:45;9.23;;;5.32;;
18217;SDS011;9234;49.344;11.120;2023-10-09T00:13:19;9.88;;;4.97;;
18217;SDS011;9234;49.344;11.120;2023-10-09T00:15:56;6.20;;;5.30;;
18217;SDS011;9234;49.344;11.120;2023-10-09T00:18:39;8.38;;;5.68;;
18217;SDS011;9234;49.344;11.120;2023-10-09T00:21:13;7.43;;;5.28;;
18217;SDS011;9234;49.344;11.120;2023-10-09T00:23:42;8.32;;;5.88;;
18217;SDS011;9234;49.344;11.120;2023-10-09T00:26:10;8.75;;;4.90;;
18217;SDS011;9234;49.344;11.120;2023-10-09T00:28:49;8.82;;;5.75;;
18217;SDS011;9234;49.344;11.120;2023-10-09T00:31:20;9.85;;;5.18;;
18217;SDS011;9234;49.344;11.120;2023-10-09T00:33:56;6.85;;;4.78;;
18217;SDS011;9234;49.344;11.120;2023-10-09T00:36:34;10.90;;;4.65;;
18217;SDS011;9234;49.344;11.120;2023-10-09T00:39:16;9.05;;;4.93;;
18217;SDS011;9234;49.344;11.120;2023-10-09T00:41:59;6.88;;;4.72;;
18217;SDS011;9234;49.344;11.120;2023-10-09T00:44:28;10.85;;;4.85;;
18217;SDS011;9234;49.344;11.120;2023-10-09T00:47:06;8.02;;;4.63;;
18217;SDS011;9234;49.344;11.120;2023-10-09T00:49:49;8.77;;;4.57;;
18217;SDS011;9234;49.344;11.120;2023-10-09T00:52:26;6.53;;;4.97;;
18217;SDS011;9234;49.344;11.120;2023-10-09T00:55:04;6.20;;;4.35;;
18217;SDS011;9234;49.344;11.120;2023-10-09T00:57:41;7.03;;;4.70;;
18217;SDS011;9234;49.344;11.120;2023-10-09T01:00:22;9.57;;;4.72;;
18217;SDS011;9234;49.344;11.120;2023-10-09T01:03:01;7.60;;;5.28;;
18217;SDS011;9234;49.344;11.120;2023-10-09T01:05:46;9.32;;;4.80;;
18217;SDS011;9234;49.344;11.120;2023-10-09T01:08:24;8.80;;;5.82;;
18217;SDS011;9234;49.344;11.120;2023-10-09T01:10:57;8.38;;;5.18;;
18217;SDS011;9234;49.344;11.120;2023-10-09T01:13:35;8.93;;;5.50;;
18217;SDS011;9234;49.344;11.120;2023-10-09T01:16:19;11.20;;;5.68;;
18217;SDS011;9234;49.344;11.120;2023-10-09T01:18:51;7.55;;;5.47;;
18217;SDS011;9234;49.344;11.120;2023-10-09T01:21:24;7.70;;;5.40;;
18217;SDS011;9234;49.344;11.120;2023-10-09T01:23:55;9.57;;;5.53;;
18217;SDS011;9234;49.344;11.120;2023-10-09T01:26:30;9.50;;;5.35;;
18217;SDS011;9234;49.344;11.120;2023-10-09T01:29:06;8.60;;;5.25;;
18217;SDS011;9234;49.344;11.120;2023-10-09T01:31:37;8.25;;;5.40;;
18217;SDS011;9234;49.344;11.120;2023-10-09T01:34:11;6.97;;;5.30;;
18217;SDS011;9234;49.344;11.120;2023-10-09T01:36:41;7.53;;;5.25;;
18217;SDS011;9234;49.344;11.120;2023-10-09T01:39:11;8.05;;;5.05;;
18217;SDS011;9234;49.344;11.120;2023-10-09T01:41:50;9.30;;;5.28;;
18217;SDS011;9234;49.344;11.120;2023-10-09T01:44:25;6.82;;;4.93;;
18217;SDS011;9234;49.344;11.120;2023-10-09T01:47:01;6.85;;;5.20;;
18217;SDS011;9234;49.344;11.120;2023-10-09T01:49:33;9.80;;;5.45;;
18217;SDS011;9234;49.344;11.120;2023-10-09T01:52:03;9.00;;;5.75;;
18217;SDS011;9234;49.344;11.120;2023-10-09T01:54:37;8.75;;;5.18;;
18217;SDS011;9234;49.344;11.120;2023-10-09T01:57:07;6.32;;;4.70;;
18217;SDS011;9234;49.344;11.120;2023-10-09T01:59:39;5.68;;;5.07;;
18217;SDS011;9234;49.344;11.120;2023-10-09T02:02:11;7.63;;;5.05;;
18217;SDS011;9234;49.344;11.120;2023-10-09T02:04:52;12.05;;;5.18;;
18217;SDS011;9234;49.344;11.120;2023-10-09T02:07:30;4.82;;;4.32;;
18217;SDS011;9234;49.344;11.120;2023-10-09T02:10:09;9.23;;;5.05;;
18217;SDS011;9234;49.344;11.120;2023-10-09T02:12:48;6.07;;;4.72;;
18217;SDS011;9234;49.344;11.120;2023-10-09T02:15:24;9.25;;;5.00;;
18217;SDS011;9234;49.344;11.120;2023-10-09T02:18:08;10.82;;;4.82;;
18217;SDS011;9234;49.344;11.120;2023-10-09T02:20:45;6.60;;;4.32;;
18217;SDS011;9234;49.344;11.120;2023-10-09T02:23:26;10.77;;;5.50;;
18217;SDS011;9234;49.344;11.120;2023-10-09T02:26:07;6.43;;;4.90;;
18217;SDS011;9234;49.344;11.120;2023-10-09T02:28:42;8.20;;;4.93;;
18217;SDS011;9234;49.344;11.120;2023-10-09T02:31:10;6.07;;;4.47;;
18217;SDS011;9234;49.344;11.120;2023-10-09T02:33:39;7.80;;;4.82;;
18217;SDS011;9234;49.344;11.120;2023-10-09T02:36:08;7.95;;;4.95;;
18217;SDS011;9234;49.344;11.120;2023-10-09T02:38:40;9.65;;;6.13;;
18217;SDS011;9234;49.344;11.120;2023-10-09T02:41:10;8.10;;;5.30;;
18217;SDS011;9234;49.344;11.120;2023-10-09T02:43:54;10.00;;;4.75;;
18217;SDS011;9234;49.344;11.120;2023-10-09T02:46:23;6.78;;;4.65;;
18217;SDS011;9234;49.344;11.120;2023-10-09T02:48:59;8.15;;;5.10;;
18217;SDS011;9234;49.344;11.120;2023-10-09T02:51:30;6.45;;;4.85;;
18217;SDS011;9234;49.344;11.120;2023-10-09T02:54:03;6.78;;;5.13;;
18217;SDS011;9234;49.344;11.120;2023-10-09T02:56:46;7.28;;;4.80;;
18217;SDS011;9234;49.344;11.120;2023-10-09T02:59:22;7.68;;;5.32;;
18217;SDS011;9234;49.344;11.120;2023-10-09T03:01:51;7.18;;;4.13;;
18217;SDS011;9234;49.344;11.120;2023-10-09T03:04:20;8.70;;;4.95;;
18217;SDS011;9234;49.344;11.120;2023-10-09T03:06:50;6.43;;;4.65;;
18217;SDS011;9234;49.344;11.120;2023-10-09T03:09:20;10.15;;;5.15;;
18217;SDS011;9234;49.344;11.120;2023-10-09T03:11:56;8.20;;;5.28;;
18217;SDS011;9234;49.344;11.120;2023-10-09T03:14:30;7.95;;;4.78;;
18217;SDS011;9234;49.344;11.120;2023-10-09T03:17:05;6.65;;;4.35;;
18217;SDS011;9234;49.344;11.120;2023-10-09T03:19:37;7.45;;;5.10;;
18217;SDS011;9234;49.344;11.120;2023-10-09T03:22:06;7.22;;;4.38;;
18217;SDS011;9234;49.344;11.120;2023-10-09T03:24:37;6.88;;;4.72;;
18217;SDS011;9234;49.344;11.120;2023-10-09T03:27:09;5.18;;;3.95;;
18217;SDS011;9234;49.344;11.120;2023-10-09T03:29:37;6.75;;;4.38;;
18217;SDS011;9234;49.344;11.120;2023-10-09T03:32:06;6.28;;;4.70;;
18217;SDS011;9234;49.344;11.120;2023-10-09T03:34:35;9.30;;;4.75;;
18217;SDS011;9234;49.344;11.120;2023-10-09T03:37:03;5.18;;;4.38;;
18217;SDS011;9234;49.344;11.120;2023-10-09T03:39:32;6.95;;;4.85;;
18217;SDS011;9234;49.344;11.120;2023-10-09T03:42:05;7.05;;;4.65;;
18217;SDS011;9234;49.344;11.120;2023-10-09T03:44:39;10.15;;;5.60;;
18217;SDS011;9234;49.344;11.120;2023-10-09T03:47:10;5.57;;;4.30;;
18217;SDS011;9234;49.344;11.120;2023-10-09T03:49:43;5.90;;;4.32;;
18217;SDS011;9234;49.344;11.120;2023-10-09T03:52:11;6.72;;;4.00;;
18217;SDS011;9234;49.344;11.120;2023-10-09T03:54:44;6.90;;;4.85;;
18217;SDS011;9234;49.344;11.120;2023-10-09T03:57:13;9.05;;;5.15;;
18217;SDS011;9234;49.344;11.120;2023-10-09T03:59:46;6.13;;;4.35;;
18217;SDS011;9234;49.344;11.120;2023-10-09T04:02:14;10.55;;;5.10;;
18217;SDS011;9234;49.344;11.120;2023-10-09T04:04:43;8.45;;;5.38;;
18217;SDS011;9234;49.344;11.120;2023-10-09T04:07:14;7.03;;;4.72;;
18217;SDS011;9234;49.344;11.120;2023-10-09T04:09:43;11.02;;;4.53;;
18217;SDS011;9234;49.344;11.120;2023-10-09T04:12:14;8.68;;;4.47;;
18217;SDS011;9234;49.344;11.120;2023-10-09T04:14:53;6.43;;;4.35;;
18217;SDS011;9234;49.344;11.120;2023-10-09T04:17:24;8.20;;;4.78;;
18217;SDS011;9234;49.344;11.120;2023-10-09T04:20:00;6.45;;;4.78;;
18217;SDS011;9234;49.344;11.120;2023-10-09T04:22:56;7.60;;;5.30;;
18217;SDS011;9234;49.344;11.120;2023-10-09T04:25:31;7.10;;;4.95;;
18217;SDS011;9234;49.344;11.120;2023-10-09T04:28:09;6.45;;;4.60;;
18217;SDS011;9234;49.344;11.120;2023-10-09T04:30:47;8.10;;;4.40;;
18217;SDS011;9234;49.344;11.120;2023-10-09T04:33:22;11.65;;;4.80;;
18217;SDS011;9234;49.344;11.120;2023-10-09T04:36:07;6.65;;;4.57;;
18217;SDS011;9234;49.344;11.120;2023-10-09T04:38:43;7.10;;;4.47;;
18217;SDS011;9234;49.344;11.120;2023-10-09T04:41:22;6.57;;;4.30;;
18217;SDS011;9234;49.344;11.120;2023-10-09T04:43:59;7.70;;;4.50;;
18217;SDS011;9234;49.344;11.120;2023-10-09T04:46:47;7.15;;;5.00;;
18217;SDS011;9234;49.344;11.120;2023-10-09T04:49:31;6.80;;;3.92;;
18217;SDS011;9234;49.344;11.120;2023-10-09T04:52:03;6.88;;;4.57;;
18217;SDS011;9234;49.344;11.120;2023-10-09T04:54:33;9.38;;;4.68;;
18217;SDS011;9234;49.344;11.120;2023-10-09T04:57:26;4.68;;;3.80;;
18217;SDS011;9234;49.344;11.120;2023-10-09T04:59:54;7.95;;;4.40;;
18217;SDS011;9234;49.344;11.120;2023-10-09T05:02:26;6.70;;;5.07;;
18217;SDS011;9234;49.344;11.120;2023-10-09T05:05:03;8.10;;;4.13;;
18217;SDS011;9234;49.344;11.120;2023-10-09T05:08:03;6.13;;;4.20;;
18217;SDS011;9234;49.344;11.120;2023-10-09T05:10:45;8.10;;;4.03;;
18217;SDS011;9234;49.344;11.120;2023-10-09T05:13:32;6.82;;;4.93;;
18217;SDS011;9234;49.344;11.120;2023-10-09T05:16:11;8.43;;;4.45;;
18217;SDS011;9234;49.344;11.120;2023-10-09T05:18:43;7.68;;;4.80;;
18217;SDS011;9234;49.344;11.120;2023-10-09T05:21:22;11.75;;;5.35;;
18217;SDS011;9234;49.344;11.120;2023-10-09T05:24:03;6.38;;;4.97;;
18217;SDS011;9234;49.344;11.120;2023-10-09T05:26:46;10.00;;;5.25;;
18217;SDS011;9234;49.344;11.120;2023-10-09T05:29:20;6.95;;;4.93;;
18217;SDS011;9234;49.344;11.120;2023-10-09T05:32:01;6.50;;;4.85;;
18217;SDS011;9234;49.344;11.120;2023-10-09T05:34:43;9.07;;;5.15;;
18217;SDS011;9234;49.344;11.120;2023-10-09T05:37:27;7.95;;;4.63;;
18217;SDS011;9234;49.344;11.120;2023-10-09T05:40:02;8.20;;;4.75;;
18217;SDS011;9234;49.344;11.120;2023-10-09T05:42:48;7.93;;;5.15;;
18217;SDS011;9234;49.344;11.120;2023-10-09T05:45:26;14.20;;;5.53;;
18217;SDS011;9234;49.344;11.120;2023-10-09T05:48:22;7.63;;;5.05;;
18217;SDS011;9234;49.344;11.120;2023-10-09T05:51:08;11.32;;;5.22;;
18217;SDS011;9234;49.344;11.120;2023-10-09T05:54:00;6.88;;;5.38;;
18217;SDS011;9234;49.344;11.120;2023-10-09T05:56:46;7.65;;;5.55;;
18217;SDS011;9234;49.344;11.120;2023-10-09T05:59:32;7.22;;;5.05;;
18217;SDS011;9234;49.344;11.120;2023-10-09T06:02:14;6.20;;;4.90;;
18217;SDS011;9234;49.344;11.120;2023-10-09T06:04:59;6.30;;;4.80;;
18217;SDS011;9234;49.344;11.120;2023-10-09T06:07:48;7.15;;;4.97;;
18217;SDS011;9234;49.344;11.120;2023-10-09T06:10:31;7.00;;;5.78;;
18217;SDS011;9234;49.344;11.120;2023-10-09T06:13:10;11.98;;;5.65;;
18217;SDS011;9234;49.344;11.120;2023-10-09T06:15:55;7.13;;;5.53;;
18217;SDS011;9234;49.344;11.120;2023-10-09T06:18:41;9.88;;;5.20;;
18217;SDS011;9234;49.344;11.120;2023-10-09T06:21:20;9.77;;;5.63;;
18217;SDS011;9234;49.344;11.120;2023-10-09T06:24:27;8.55;;;5.22;;
18217;SDS011;9234;49.344;11.120;2023-10-09T06:27:08;8.75;;;5.80;;
18217;SDS011;9234;49.344;11.120;2023-10-09T06:29:50;9.23;;;5.32;;
18217;SDS011;9234;49.344;11.120;2023-10-09T06:32:38;8.13;;;5.20;;
18217;SDS011;9234;49.344;11.120;2023-10-09T06:35:17;8.13;;;5.65;;
18217;SDS011;9234;49.344;11.120;2023-10-09T06:37:45;9.98;;;6.45;;
18217;SDS011;9234;49.344;11.120;2023-10-09T06:40:35;10.95;;;6.45;;
18217;SDS011;9234;49.344;11.120;2023-10-09T06:43:23;8.15;;;5.82;;
18217;SDS011;9234;49.344;11.120;2023-10-09T06:45:55;11.88;;;6.07;;
18217;SDS011;9234;49.344;11.120;2023-10-09T06:48:45;12.70;;;6.97;;
18217;SDS011;9234;49.344;11.120;2023-10-09T06:51:22;7.30;;;5.97;;
18217;SDS011;9234;49.344;11.120;2023-10-09T06:54:10;12.45;;;6.93;;
18217;SDS011;9234;49.344;11.120;2023-10-09T06:56:43;12.77;;;5.75;;
18217;SDS011;9234;49.344;11.120;2023-10-09T06:59:29;12.52;;;5.55;;
18217;SDS011;9234;49.344;11.120;2023-10-09T07:02:29;12.00;;;6.07;;
18217;SDS011;9234;49.344;11.120;2023-10-09T07:05:12;11.00;;;6.18;;
18217;SDS011;9234;49.344;11.120;2023-10-09T07:07:44;12.57;;;6.35;;
18217;SDS011;9234;49.344;11.120;2023-10-09T07:10:21;14.35;;;7.15;;
18217;SDS011;9234;49.344;11.120;2023-10-09T07:13:07;13.70;;;7.30;;
18217;SDS011;9234;49.344;11.120;2023-10-09T07:15:35;20.27;;;7.55;;
18217;SDS011;9234;49.344;11.120;2023-10-09T07:18:21;10.30;;;7.03;;
18217;SDS011;9234;49.344;11.120;2023-10-09T07:21:07;12.63;;;7.47;;
18217;SDS011;9234;49.344;11.120;2023-10-09T07:23:44;12.15;;;6.80;;
18217;SDS011;9234;49.344;11.120;2023-10-09T07:26:15;14.35;;;6.68;;
18217;SDS011;9234;49.344;11.120;2023-10-09T07:28:51;11.35;;;5.85;;
18217;SDS011;9234;49.344;11.120;2023-10-09T07:31:27;12.77;;;6.18;;
18217;SDS011;9234;49.344;11.120;2023-10-09T07:34:06;12.68;;;5.38;;
18217;SDS011;9234;49.344;11.120;2023-10-09T07:36:48;8.32;;;5.43;;
18217;SDS011;9234;49.344;11.120;2023-10-09T07:39:22;9.88;;;5.40;;
18217;SDS011;9234;49.344;11.120;2023-10-09T07:42:01;9.23;;;5.35;;
18217;SDS011;9234;49.344;11.120;2023-10-09T07:44:48;10.57;;;5.47;;
18217;SDS011;9234;49.344;11.120;2023-10-09T07:47:21;10.55;;;5.45;;
18217;SDS011;9234;49.344;11.120;2023-10-09T07:50:12;10.77;;;5.00;;
18217;SDS011;9234;49.344;11.120;2023-10-09T07:52:47;10.45;;;5.63;;
18217;SDS011;9234;49.344;11.120;2023-10-09T07:55:16;12.15;;;5.60;;
18217;SDS011;9234;49.344;11.120;2023-10-09T07:57:56;8.38;;;5.03;;
18217;SDS011;9234;49.344;11.120;2023-10-09T08:00:38;10.45;;;5.20;;
18217;SDS011;9234;49.344;11.120;2023-10-09T08:03:33;11.15;;;5.35;;
18217;SDS011;9234;49.344;11.120;2023-10-09T08:06:02;12.38;;;5.55;;
18217;SDS011;9234;49.344;11.120;2023-10-09T08:08:51;16.15;;;5.30;;
18217;SDS011;9234;49.344;11.120;2023-10-09T08:11:33;12.75;;;4.85;;
18217;SDS011;9234;49.344;11.120;2023-10-09T08:14:22;10.85;;;5.05;;
18217;SDS011;9234;49.344;11.120;2023-10-09T08:17:10;10.18;;;4.43;;
18217;SDS011;9234;49.344;11.120;2023-10-09T08:19:42;14.95;;;4.78;;
18217;SDS011;9234;49.344;11.120;2023-10-09T08:22:21;10.02;;;4.60;;
18217;SDS011;9234;49.344;11.120;2023-10-09T08:25:10;12.90;;;5.57;;
18217;SDS011;9234;49.344;11.120;2023-10-09T08:27:54;9.75;;;4.13;;
18217;SDS011;9234;49.344;11.120;2023-10-09T08:30:25;13.38;;;4.85;;
18217;SDS011;9234;49.344;11.120;2023-10-09T08:33:17;9.05;;;4.55;;
18217;SDS011;9234;49.344;11.120;2023-10-09T08:36:24;10.02;;;3.92;;
18217;SDS011;9234;49.344;11.120;2023-10-09T08:38:58;9.63;;;4.28;;
18217;SDS011;9234;49.344;11.120;2023-10-09T08:41:40;12.40;;;4.22;;
18217;SDS011;9234;49.344;11.120;2023-10-09T08:44:08;10.30;;;3.90;;
18217;SDS011;9234;49.344;11.120;2023-10-09T08:46:41;13.45;;;4.43;;
18217;SDS011;9234;49.344;11.120;2023-10-09T08:49:12;13.38;;;4.15;;
18217;SDS011;9234;49.344;11.120;2023-10-09T08:51:41;14.43;;;4.07;;
18217;SDS011;9234;49.344;11.120;2023-10-09T08:54:10;13.52;;;4.05;;
18217;SDS011;9234;49.344;11.120;2023-10-09T08:56:41;12.35;;;4.20;;
18217;SDS011;9234;49.344;11.120;2023-10-09T08:59:16;16.00;;;4.57;;
18217;SDS011;9234;49.344;11.120;2023-10-09T09:01:46;16.20;;;4.18;;
18217;SDS011;9234;49.344;11.120;2023-10-09T09:04:35;16.00;;;4.70;;
18217;SDS011;9234;49.344;11.120;2023-10-09T09:07:06;16.50;;;4.78;;
18217;SDS011;9234;49.344;11.120;2023-10-09T09:09:55;14.65;;;4.88;;
18217;SDS011;9234;49.344;11.120;2023-10-09T09:12:27;11.18;;;4.50;;
18217;SDS011;9234;49.344;11.120;2023-10-09T09:15:05;12.93;;;3.95;;
18217;SDS011;9234;49.344;11.120;2023-10-09T09:17:46;13.93;;;4.63;;
18217;SDS011;9234;49.344;11.120;2023-10-09T09:20:21;9.73;;;3.67;;
18217;SDS011;9234;49.344;11.120;2023-10-09T09:22:56;12.73;;;3.80;;
18217;SDS011;9234;49.344;11.120;2023-10-09T09:25:41;17.02;;;4.00;;
18217;SDS011;9234;49.344;11.120;2023-10-09T09:28:11;12.60;;;4.40;;
18217;SDS011;9234;49.344;11.120;2023-10-09T09:30:46;15.85;;;4.40;;
18217;SDS011;9234;49.344;11.120;2023-10-09T09:33:18;13.30;;;4.60;;
18217;SDS011;9234;49.344;11.120;2023-10-09T09:36:07;11.60;;;4.18;;
18217;SDS011;9234;49.344;11.120;2023-10-09T09:38:37;10.60;;;4.13;;
18217;SDS011;9234;49.344;11.120;2023-10-09T09:41:15;10.00;;;4.13;;
18217;SDS011;9234;49.344;11.120;2023-10-09T09:43:51;13.18;;;3.92;;
18217;SDS011;9234;49.344;11.120;2023-10-09T09:46:23;15.55;;;4.40;;
18217;SDS011;9234;49.344;11.120;2023-10-09T09:49:00;13.88;;;3.97;;
18217;SDS011;9234;49.344;11.120;2023-10-09T09:51:30;14.70;;;4.20;;
18217;SDS011;9234;49.344;11.120;2023-10-09T09:54:00;11.00;;;4.05;;
18217;SDS011;9234;49.344;11.120;2023-10-09T09:56:34;13.40;;;4.05;;
18217;SDS011;9234;49.344;11.120;2023-10-09T09:59:06;12.80;;;4.50;;
18217;SDS011;9234;49.344;11.120;2023-10-09T10:01:40;14.95;;;4.18;;
18217;SDS011;9234;49.344;11.120;2023-10-09T10:04:12;16.45;;;4.72;;
18217;SDS011;9234;49.344;11.120;2023-10-09T10:06:49;14.27;;;4.32;;
18217;SDS011;9234;49.344;11.120;2023-10-09T10:09:34;10.13;;;4.15;;
18217;SDS011;9234;49.344;11.120;2023-10-09T10:12:05;13.77;;;4.25;;
18217;SDS011;9234;49.344;11.120;2023-10-09T10:14:51;15.98;;;4.72;;
18217;SDS011;9234;49.344;11.120;2023-10-09T10:17:23;11.90;;;3.78;;
18217;SDS011;9234;49.344;11.120;2023-10-09T10:20:04;11.90;;;4.30;;
18217;SDS011;9234;49.344;11.120;2023-10-09T10:23:17;13.43;;;4.22;;
18217;SDS011;9234;49.344;11.120;2023-10-09T10:25:52;12.65;;;4.95;;
18217;SDS011;9234;49.344;11.120;2023-10-09T10:28:27;9.13;;;3.92;;
18217;SDS011;9234;49.344;11.120;2023-10-09T10:31:02;18.98;;;5.50;;
18217;SDS011;9234;49.344;11.120;2023-10-09T10:36:37;11.75;;;4.38;;
18217;SDS011;9234;49.344;11.120;2023-10-09T10:39:10;12.75;;;4.60;;
18217;SDS011;9234;49.344;11.120;2023-10-09T10:41:56;17.33;;;4.22;;
18217;SDS011;9234;49.344;11.120;2023-10-09T10:44:27;13.32;;;3.78;;
18217;SDS011;9234;49.344;11.120;2023-10-09T10:47:04;13.20;;;4.88;;
18217;SDS011;9234;49.344;11.120;2023-10-09T10:49:49;14.38;;;4.30;;
18217;SDS011;9234;49.344;11.120;2023-10-09T10:52:27;14.50;;;4.68;;
18217;SDS011;9234;49.344;11.120;2023-10-09T10:55:12;11.27;;;4.13;;
18217;SDS011;9234;49.344;11.120;2023-10-09T10:57:58;13.25;;;4.40;;
18217;SDS011;9234;49.344;11.120;2023-10-09T11:00:36;13.55;;;4.35;;
18217;SDS011;9234;49.344;11.120;2023-10-09T11:03:21;20.45;;;4.78;;
18217;SDS011;9234;49.344;11.120;2023-10-09T11:05:56;9.95;;;4.10;;
18217;SDS011;9234;49.344;11.120;2023-10-09T11:08:43;12.02;;;4.90;;
18217;SDS011;9234;49.344;11.120;2023-10-09T11:11:22;12.48;;;4.50;;
18217;SDS011;9234;49.344;11.120;2023-10-09T11:14:07;11.93;;;4.13;;
18217;SDS011;9234;49.344;11.120;2023-10-09T11:16:41;10.45;;;4.25;;
18217;SDS011;9234;49.344;11.120;2023-10-09T11:19:10;11.63;;;5.03;;
18217;SDS011;9234;49.344;11.120;2023-10-09T11:21:50;21.30;;;5.40;;
18217;SDS011;9234;49.344;11.120;2023-10-09T11:24:26;13.27;;;4.55;;
18217;SDS011;9234;49.344;11.120;2023-10-09T11:27:01;15.13;;;4.20;;
18217;SDS011;9234;49.344;11.120;2023-10-09T11:29:32;10.65;;;4.20;;
18217;SDS011;9234;49.344;11.120;2023-10-09T11:32:16;15.23;;;5.05;;
18217;SDS011;9234;49.344;11.120;2023-10-09T11:34:49;15.40;;;4.68;;
18217;SDS011;9234;49.344;11.120;2023-10-09T11:37:35;13.73;;;4.03;;
18217;SDS011;9234;49.344;11.120;2023-10-09T11:43:01;13.13;;;3.53;;
18217;SDS011;9234;49.344;11.120;2023-10-09T11:45:36;16.90;;;5.50;;
18217;SDS011;9234;49.344;11.120;2023-10-09T11:50:54;20.58;;;4.60;;
18217;SDS011;9234;49.344;11.120;2023-10-09T11:53:39;15.88;;;4.55;;
18217;SDS011;9234;49.344;11.120;2023-10-09T11:56:10;10.20;;;3.47;;
18217;SDS011;9234;49.344;11.120;2023-10-09T11:58:44;15.75;;;4.28;;
18217;SDS011;9234;49.344;11.120;2023-10-09T12:01:16;12.95;;;4.47;;
18217;SDS011;9234;49.344;11.120;2023-10-09T12:03:47;15.52;;;4.50;;
18217;SDS011;9234;49.344;11.120;2023-10-09T12:06:18;16.88;;;4.70;;
18217;SDS011;9234;49.344;11.120;2023-10-09T12:08:49;8.48;;;3.88;;
18217;SDS011;9234;49.344;11.120;2023-10-09T12:11:20;10.38;;;3.70;;
18217;SDS011;9234;49.344;11.120;2023-10-09T12:13:56;9.23;;;3.75;;
18217;SDS011;9234;49.344;11.120;2023-10-09T12:16:27;11.18;;;4.28;;
18217;SDS011;9234;49.344;11.120;2023-10-09T12:18:59;12.38;;;4.15;;
18217;SDS011;9234;49.344;11.120;2023-10-09T12:21:29;16.38;;;5.30;;
18217;SDS011;9234;49.344;11.120;2023-10-09T12:23:57;12.55;;;4.10;;
18217;SDS011;9234;49.344;11.120;2023-10-09T12:26:28;10.45;;;3.95;;
18217;SDS011;9234;49.344;11.120;2023-10-09T12:29:03;15.82;;;4.55;;
18217;SDS011;9234;49.344;11.120;2023-10-09T12:31:37;11.23;;;4.60;;
18217;SDS011;9234;49.344;11.120;2023-10-09T12:34:05;13.00;;;4.35;;
18217;SDS011;9234;49.344;11.120;2023-10-09T12:36:34;14.43;;;4.10;;
18217;SDS011;9234;49.344;11.120;2023-10-09T12:39:04;16.63;;;5.20;;
18217;SDS011;9234;49.344;11.120;2023-10-09T12:41:32;16.33;;;4.45;;
18217;SDS011;9234;49.344;11.120;2023-10-09T12:44:09;11.20;;;3.67;;
18217;SDS011;9234;49.344;11.120;2023-10-09T12:46:41;9.70;;;3.80;;
18217;SDS011;9234;49.344;11.120;2023-10-09T12:49:18;17.05;;;4.15;;
18217;SDS011;9234;49.344;11.120;2023-10-09T12:51:51;12.45;;;4.10;;
18217;SDS011;9234;49.344;11.120;2023-10-09T12:54:19;11.13;;;3.85;;
18217;SDS011;9234;49.344;11.120;2023-10-09T12:56:53;10.02;;;3.70;;
18217;SDS011;9234;49.344;11.120;2023-10-09T12:59:23;15.75;;;4.10;;
18217;SDS011;9234;49.344;11.120;2023-10-09T13:01:51;12.05;;;3.78;;
18217;SDS011;9234;49.344;11.120;2023-10-09T13:04:26;10.20;;;3.88;;
18217;SDS011;9234;49.344;11.120;2023-10-09T13:06:59;11.65;;;3.92;;
18217;SDS011;9234;49.344;11.120;2023-10-09T13:09:30;16.85;;;4.18;;
18217;SDS011;9234;49.344;11.120;2023-10-09T13:12:09;11.02;;;4.38;;
18217;SDS011;9234;49.344;11.120;2023-10-09T13:14:45;14.45;;;4.07;;
18217;SDS011;9234;49.344;11.120;2023-10-09T13:17:16;13.77;;;4.30;;
18217;SDS011;9234;49.344;11.120;2023-10-09T13:19:47;10.18;;;3.92;;
18217;SDS011;9234;49.344;11.120;2023-10-09T13:22:15;18.45;;;4.63;;
18217;SDS011;9234;49.344;11.120;2023-10-09T13:24:44;14.25;;;4.35;;
18217;SDS011;9234;49.344;11.120;2023-10-09T13:27:15;11.15;;;4.07;;
18217;SDS011;9234;49.344;11.120;2023-10-09T13:29:49;8.93;;;3.95;;
18217;SDS011;9234;49.344;11.120;2023-10-09T13:32:18;13.45;;;5.32;;
18217;SDS011;9234;49.344;11.120;2023-10-09T13:34:46;12.68;;;4.22;;
18217;SDS011;9234;49.344;11.120;2023-10-09T13:37:16;17.23;;;4.60;;
18217;SDS011;9234;49.344;11.120;2023-10-09T13:39:48;12.45;;;3.72;;
18217;SDS011;9234;49.344;11.120;2023-10-09T13:42:19;12.13;;;4.10;;
18217;SDS011;9234;49.344;11.120;2023-10-09T13:44:53;9.80;;;3.83;;
18217;SDS011;9234;49.344;11.120;2023-10-09T13:47:21;11.52;;;3.97;;
18217;SDS011;9234;49.344;11.120;2023-10-09T13:49:58;8.30;;;3.85;;
18217;SDS011;9234;49.344;11.120;2023-10-09T13:52:27;9.05;;;3.90;;
18217;SDS011;9234;49.344;11.120;2023-10-09T13:54:57;15.40;;;4.78;;
18217;SDS011;9234;49.344;11.120;2023-10-09T13:57:41;9.43;;;3.97;;
18217;SDS011;9234;49.344;11.120;2023-10-09T14:00:13;9.30;;;3.47;;
18217;SDS011;9234;49.344;11.120;2023-10-09T14:02:46;9.20;;;4.18;;
18217;SDS011;9234;49.344;11.120;2023-10-09T14:05:18;12.63;;;3.72;;
18217;SDS011;9234;49.344;11.120;2023-10-09T14:07:46;8.82;;;3.30;;
18217;SDS011;9234;49.344;11.120;2023-10-09T14:10:15;11.80;;;3.80;;
18217;SDS011;9234;49.344;11.120;2023-10-09T14:12:44;10.90;;;4.15;;
18217;SDS011;9234;49.344;11.120;2023-10-09T14:15:14;10.20;;;4.13;;
18217;SDS011;9234;49.344;11.120;2023-10-09T14:17:44;10.07;;;4.68;;
18217;SDS011;9234;49.344;11.120;2023-10-09T14:20:13;9.15;;;4.70;;
18217;SDS011;9234;49.344;11.120;2023-10-09T14:22:58;6.93;;;3.75;;
18217;SDS011;9234;49.344;11.120;2023-10-09T14:25:33;10.57;;;4.22;;
18217;SDS011;9234;49.344;11.120;2023-10-09T14:28:04;10.73;;;3.65;;
18217;SDS011;9234;49.344;11.120;2023-10-09T14:30:36;8.13;;;3.63;;
18217;SDS011;9234;49.344;11.120;2023-10-09T14:33:09;11.38;;;3.83;;
18217;SDS011;9234;49.344;11.120;2023-10-09T14:35:41;9.52;;;4.15;;
18217;SDS011;9234;49.344;11.120;2023-10-09T14:38:10;11.63;;;4.43;;
18217;SDS011;9234;49.344;11.120;2023-10-09T14:40:42;7.10;;;3.65;;
18217;SDS011;9234;49.344;11.120;2023-10-09T14:43:11;7.38;;;3.70;;
18217;SDS011;9234;49.344;11.120;2023-10-09T14:45:47;9.20;;;3.35;;
18217;SDS011;9234;49.344;11.120;2023-10-09T14:48:20;10.85;;;3.67;;
18217;SDS011;9234;49.344;11.120;2023-10-09T14:50:52;9.57;;;3.67;;
18217;SDS011;9234;49.344;11.120;2023-10-09T14:53:21;9.38;;;3.55;;
18217;SDS011;9234;49.344;11.120;2023-10-09T14:55:56;7.95;;;3.05;;
18217;SDS011;9234;49.344;11.120;2023-10-09T14:58:26;10.32;;;4.20;;
18217;SDS011;9234;49.344;11.120;2023-10-09T15:00:57;6.18;;;3.90;;
18217;SDS011;9234;49.344;11.120;2023-10-09T15:03:37;13.95;;;6.25;;
18217;SDS011;9234;49.344;11.120;2023-10-09T15:06:05;16.27;;;8.73;;
18217;SDS011;9234;49.344;11.120;2023-10-09T15:08:36;13.32;;;4.00;;
18217;SDS011;9234;49.344;11.120;2023-10-09T15:11:06;10.80;;;4.38;;
18217;SDS011;9234;49.344;11.120;2023-10-09T15:13:35;7.68;;;3.78;;
18217;SDS011;9234;49.344;11.120;2023-10-09T15:16:07;7.35;;;3.58;;
18217;SDS011;9234;49.344;11.120;2023-10-09T15:18:37;15.27;;;5.97;;
18217;SDS011;9234;49.344;11.120;2023-10-09T15:21:05;8.10;;;4.70;;
18217;SDS011;9234;49.344;11.120;2023-10-09T15:23:35;20.13;;;13.77;;
18217;SDS011;9234;49.344;11.120;2023-10-09T15:26:03;14.65;;;7.70;;
18217;SDS011;9234;49.344;11.120;2023-10-09T15:28:33;25.85;;;14.05;;
18217;SDS011;9234;49.344;11.120;2023-10-09T15:31:01;19.40;;;14.07;;
18217;SDS011;9234;49.344;11.120;2023-10-09T15:33:31;12.13;;;5.78;;
18217;SDS011;9234;49.344;11.120;2023-10-09T15:36:08;12.10;;;5.13;;
18217;SDS011;9234;49.344;11.120;2023-10-09T15:38:39;14.07;;;5.95;;
18217;SDS011;9234;49.344;11.120;2023-10-09T15:41:08;12.80;;;6.18;;